createdAt,value
2017-09-06T00:00:40.148Z,19.39
2017-09-06T00:01:40.120Z,19.4
2017-09-06T00:02:40.105Z,19.38
2017-09-06T00:03:40.081Z,19.32
2017-09-06T00:04:40.058Z,19.39
2017-09-06T00:05:40.035Z,19.28
2017-09-06T00:06:40.024Z,19.32
2017-09-06T00:07:39.999Z,19.35
2017-09-06T00:08:40.002Z,19.35
2017-09-06T00:09:39.956Z,19.32
2017-09-06T00:10:39.943Z,19.32
2017-09-06T00:11:39.613Z,19.3
2017-09-06T00:12:39.899Z,19.38
2017-09-06T00:13:39.879Z,19.34
2017-09-06T00:14:39.868Z,19.25
2017-09-06T00:15:39.838Z,19.28
2017-09-06T00:16:39.824Z,19.3
2017-09-06T00:17:39.811Z,19.28
2017-09-06T00:18:39.797Z,19.28
2017-09-06T00:19:39.774Z,19.3
2017-09-06T00:20:39.747Z,19.24
2017-09-06T00:21:39.723Z,19.25
2017-09-06T00:22:39.716Z,19.24
2017-09-06T00:23:39.727Z,19.28
2017-09-06T00:24:39.356Z,19.34
2017-09-06T00:25:39.647Z,19.3
2017-09-06T00:26:39.625Z,19.27
2017-09-06T00:27:39.604Z,19.31
2017-09-06T00:28:39.585Z,19.27
2017-09-06T00:29:39.567Z,19.25
2017-09-06T00:30:39.545Z,19.3
2017-09-06T00:31:39.529Z,19.2
2017-09-06T00:32:39.556Z,19.17
2017-09-06T00:33:39.537Z,19.27
2017-09-06T00:34:39.464Z,19.2
2017-09-06T00:35:39.447Z,19.3
2017-09-06T00:36:39.423Z,19.25
2017-09-06T00:37:39.405Z,19.21
2017-09-06T00:38:39.397Z,19.23
2017-09-06T00:39:39.370Z,19.24
2017-09-06T00:40:39.347Z,19.2
2017-09-06T00:41:39.329Z,19.23
2017-09-06T00:42:39.304Z,19.21
2017-09-06T00:43:39.287Z,19.27
2017-09-06T00:44:39.275Z,19.17
2017-09-06T00:45:39.285Z,19.27
2017-09-06T00:46:39.233Z,19.2
2017-09-06T00:47:38.900Z,19.3
2017-09-06T00:48:39.197Z,19.31
2017-09-06T00:49:39.184Z,19.17
2017-09-06T00:50:39.144Z,19.21
2017-09-06T00:51:39.125Z,19.24
2017-09-06T00:52:39.108Z,19.16
2017-09-06T00:53:39.091Z,19.21
2017-09-06T00:54:39.076Z,19.2
2017-09-06T00:55:39.051Z,19.27
2017-09-06T00:56:39.028Z,19.27
2017-09-06T00:57:39.012Z,19.2
2017-09-06T00:58:39.000Z,19.23
2017-09-06T00:59:39.030Z,19.23
2017-09-06T01:00:38.950Z,19.12
2017-09-06T01:01:38.993Z,19.21
2017-09-06T01:02:38.908Z,19.23
2017-09-06T01:03:38.992Z,19.23
2017-09-06T01:04:38.875Z,19.21
2017-09-06T01:05:38.854Z,19.16
2017-09-06T01:06:38.840Z,19.27
2017-09-06T01:07:38.811Z,19.25
2017-09-06T01:08:38.797Z,19.27
2017-09-06T01:09:38.771Z,19.28
2017-09-06T01:10:38.750Z,19.16
2017-09-06T01:11:38.743Z,19.23
2017-09-06T01:12:39.022Z,19.21
2017-09-06T01:13:38.690Z,19.15
2017-09-06T01:14:38.669Z,19.2
2017-09-06T01:15:38.658Z,19.3
2017-09-06T01:16:38.936Z,19.2
2017-09-06T01:17:38.305Z,19.17
2017-09-06T01:18:38.592Z,19.23
2017-09-06T01:19:38.572Z,19.2
2017-09-06T01:20:38.564Z,19.15
2017-09-06T01:21:38.536Z,19.12
2017-09-06T01:22:37.906Z,19.21
2017-09-06T01:23:38.543Z,19.21
2017-09-06T01:24:38.473Z,19.12
2017-09-06T01:25:38.456Z,19.13
2017-09-06T01:26:38.497Z,19.1
2017-09-06T01:27:38.467Z,19.17
2017-09-06T01:28:38.403Z,19.23
2017-09-06T01:29:38.069Z,19.1
2017-09-06T01:30:38.350Z,19.13
2017-09-06T01:31:38.341Z,19.16
2017-09-06T01:32:38.321Z,19.12
2017-09-06T01:33:38.293Z,19.1
2017-09-06T01:34:38.283Z,19.1
2017-09-06T01:35:38.273Z,19.1
2017-09-06T01:36:38.251Z,19.1
2017-09-06T01:37:38.220Z,19.1
2017-09-06T01:38:38.206Z,19.07
2017-09-06T01:39:38.233Z,19.06
2017-09-06T01:40:38.164Z,18.97
2017-09-06T01:41:38.146Z,18.99
2017-09-06T01:42:38.124Z,19.06
2017-09-06T01:43:38.106Z,18.97
2017-09-06T01:44:38.083Z,18.97
2017-09-06T01:45:38.066Z,18.97
2017-09-06T01:46:38.043Z,18.99
2017-09-06T01:47:38.025Z,19.01
2017-09-06T01:48:38.009Z,19.06
2017-09-06T01:49:37.981Z,19.01
2017-09-06T01:50:38.013Z,18.99
2017-09-06T01:51:37.942Z,18.97
2017-09-06T01:52:37.923Z,18.96
2017-09-06T01:53:37.895Z,18.91
2017-09-06T01:54:37.887Z,18.97
2017-09-06T01:55:37.865Z,19.02
2017-09-06T01:56:37.856Z,18.91
2017-09-06T01:57:37.823Z,18.97
2017-09-06T01:58:37.500Z,18.97
2017-09-06T01:59:37.787Z,18.97
2017-09-06T02:00:37.770Z,18.94
2017-09-06T02:01:37.752Z,19.01
2017-09-06T02:02:37.734Z,19.05
2017-09-06T02:03:37.699Z,18.96
2017-09-06T02:04:37.375Z,19.02
2017-09-06T02:05:37.667Z,18.96
2017-09-06T02:06:37.694Z,18.99
2017-09-06T02:07:37.625Z,18.96
2017-09-06T02:08:37.608Z,18.96
2017-09-06T02:09:37.639Z,18.93
2017-09-06T02:10:37.568Z,18.94
2017-09-06T02:11:37.241Z,18.94
2017-09-06T02:12:37.525Z,18.96
2017-09-06T02:13:37.502Z,18.97
2017-09-06T02:14:37.481Z,18.9
2017-09-06T02:15:37.472Z,18.87
2017-09-06T02:16:37.448Z,18.86
2017-09-06T02:17:37.429Z,18.91
2017-09-06T02:18:37.409Z,18.84
2017-09-06T02:19:37.387Z,18.86
2017-09-06T02:20:37.371Z,18.84
2017-09-06T02:21:37.352Z,18.82
2017-09-06T02:22:37.330Z,18.82
2017-09-06T02:23:37.306Z,18.87
2017-09-06T02:24:37.283Z,18.83
2017-09-06T02:25:37.269Z,18.82
2017-09-06T02:26:37.252Z,18.78
2017-09-06T02:27:37.223Z,18.83
2017-09-06T02:28:37.202Z,18.71
2017-09-06T02:29:37.189Z,18.75
2017-09-06T02:30:37.173Z,18.74
2017-09-06T02:31:37.147Z,18.72
2017-09-06T02:32:37.123Z,18.78
2017-09-06T02:33:37.154Z,18.76
2017-09-06T02:34:37.087Z,18.75
2017-09-06T02:35:37.071Z,18.74
2017-09-06T02:36:37.044Z,18.68
2017-09-06T02:37:37.030Z,18.62
2017-09-06T02:38:37.001Z,18.62
2017-09-06T02:39:36.991Z,18.72
2017-09-06T02:40:36.964Z,18.62
2017-09-06T02:41:36.946Z,18.65
2017-09-06T02:42:36.929Z,18.66
2017-09-06T02:43:36.903Z,18.51
2017-09-06T02:44:36.591Z,18.51
2017-09-06T02:45:36.869Z,18.5
2017-09-06T02:46:36.846Z,18.47
2017-09-06T02:47:36.829Z,18.56
2017-09-06T02:48:36.801Z,18.41
2017-09-06T02:49:36.791Z,18.36
2017-09-06T02:50:36.773Z,18.46
2017-09-06T02:51:36.746Z,18.38
2017-09-06T02:52:36.779Z,18.29
2017-09-06T02:53:36.709Z,18.35
2017-09-06T02:54:36.378Z,18.35
2017-09-06T02:55:36.360Z,18.32
2017-09-06T02:56:36.641Z,18.26
2017-09-06T02:57:36.624Z,18.28
2017-09-06T02:58:36.603Z,18.26
2017-09-06T02:59:36.578Z,18.32
2017-09-06T03:00:36.561Z,18.25
2017-09-06T03:01:36.543Z,18.28
2017-09-06T03:02:36.561Z,18.35
2017-09-06T03:03:36.549Z,18.34
2017-09-06T03:04:36.530Z,18.23
2017-09-06T03:05:36.459Z,18.23
2017-09-06T03:06:36.444Z,18.21
2017-09-06T03:07:36.418Z,18.23
2017-09-06T03:08:36.455Z,18.25
2017-09-06T03:09:36.384Z,18.21
2017-09-06T03:10:36.102Z,18.2
2017-09-06T03:11:36.344Z,18.19
2017-09-06T03:12:36.321Z,18.11
2017-09-06T03:13:36.308Z,18.17
2017-09-06T03:14:36.281Z,18.14
2017-09-06T03:15:36.315Z,18.14
2017-09-06T03:16:36.247Z,18.2
2017-09-06T03:17:36.215Z,18.14
2017-09-06T03:18:36.201Z,18.19
2017-09-06T03:19:36.179Z,18.21
2017-09-06T03:20:36.158Z,18.2
2017-09-06T03:21:36.146Z,18.21
2017-09-06T03:22:36.121Z,18.34
2017-09-06T03:23:36.101Z,18.28
2017-09-06T03:24:36.081Z,18.28
2017-09-06T03:25:36.059Z,18.23
2017-09-06T03:26:36.038Z,18.29
2017-09-06T03:27:36.012Z,18.32
2017-09-06T03:28:35.997Z,18.35
2017-09-06T03:29:35.671Z,18.32
2017-09-06T03:30:35.961Z,18.34
2017-09-06T03:31:35.946Z,18.32
2017-09-06T03:32:35.916Z,18.35
2017-09-06T03:33:35.890Z,18.36
2017-09-06T03:34:35.618Z,18.41
2017-09-06T03:35:35.856Z,18.46
2017-09-06T03:36:35.835Z,18.38
2017-09-06T03:37:35.826Z,18.44
2017-09-06T03:38:35.811Z,18.38
2017-09-06T03:39:35.771Z,18.49
2017-09-06T03:40:35.752Z,18.46
2017-09-06T03:41:35.787Z,18.36
2017-09-06T03:42:35.719Z,18.35
2017-09-06T03:43:35.697Z,18.36
2017-09-06T03:44:35.677Z,18.34
2017-09-06T03:45:35.652Z,18.31
2017-09-06T03:46:35.630Z,18.29
2017-09-06T03:47:35.303Z,18.35
2017-09-06T03:48:35.602Z,18.25
2017-09-06T03:49:35.571Z,18.26
2017-09-06T03:50:35.558Z,18.32
2017-09-06T03:51:35.531Z,18.35
2017-09-06T03:52:35.511Z,18.36
2017-09-06T03:53:35.489Z,18.28
2017-09-06T03:54:35.161Z,18.28
2017-09-06T03:55:35.448Z,18.31
2017-09-06T03:56:35.436Z,18.35
2017-09-06T03:57:35.413Z,18.34
2017-09-06T03:58:35.392Z,18.35
2017-09-06T03:59:35.367Z,18.36
2017-09-06T04:00:35.355Z,18.38
2017-09-06T04:01:35.330Z,18.34
2017-09-06T04:02:35.005Z,18.32
2017-09-06T04:03:35.294Z,18.36
2017-09-06T04:04:35.288Z,18.41
2017-09-06T04:05:35.245Z,18.32
2017-09-06T04:06:34.923Z,18.35
2017-09-06T04:07:35.214Z,18.32
2017-09-06T04:08:35.188Z,18.46
2017-09-06T04:09:35.169Z,18.41
2017-09-06T04:10:35.148Z,18.38
2017-09-06T04:11:34.825Z,18.38
2017-09-06T04:12:35.109Z,18.35
2017-09-06T04:13:35.088Z,18.42
2017-09-06T04:14:35.068Z,18.38
2017-09-06T04:15:35.048Z,18.38
2017-09-06T04:16:34.714Z,18.44
2017-09-06T04:17:35.007Z,18.38
2017-09-06T04:18:34.990Z,18.35
2017-09-06T04:19:34.969Z,18.39
2017-09-06T04:20:34.957Z,18.39
2017-09-06T04:21:34.931Z,18.39
2017-09-06T04:22:34.915Z,18.41
2017-09-06T04:23:34.882Z,18.36
2017-09-06T04:24:34.876Z,18.41
2017-09-06T04:25:34.843Z,18.41
2017-09-06T04:26:34.884Z,18.44
2017-09-06T04:27:34.813Z,18.41
2017-09-06T04:28:34.782Z,18.47
2017-09-06T04:29:34.771Z,18.46
2017-09-06T04:30:34.745Z,18.36
2017-09-06T04:31:34.724Z,18.38
2017-09-06T04:32:34.709Z,18.49
2017-09-06T04:33:34.683Z,18.49
2017-09-06T04:34:34.668Z,18.42
2017-09-06T04:35:34.643Z,18.34
2017-09-06T04:36:34.625Z,18.34
2017-09-06T04:37:34.616Z,18.31
2017-09-06T04:38:34.582Z,18.32
2017-09-06T04:39:34.565Z,18.35
2017-09-06T04:40:34.543Z,18.36
2017-09-06T04:41:34.218Z,18.31
2017-09-06T04:42:34.247Z,18.34
2017-09-06T04:43:34.480Z,18.36
2017-09-06T04:44:34.511Z,18.32
2017-09-06T04:45:34.446Z,18.35
2017-09-06T04:46:34.424Z,18.34
2017-09-06T04:47:34.406Z,18.36
2017-09-06T04:48:34.385Z,18.32
2017-09-06T04:49:34.364Z,18.34
2017-09-06T04:50:34.349Z,18.36
2017-09-06T04:51:34.322Z,18.34
2017-09-06T04:52:34.301Z,18.34
2017-09-06T04:53:34.286Z,18.35
2017-09-06T04:54:34.266Z,18.31
2017-09-06T04:55:34.240Z,18.32
2017-09-06T04:56:34.227Z,18.26
2017-09-06T04:57:34.206Z,18.28
2017-09-06T04:58:34.181Z,18.29
2017-09-06T04:59:34.210Z,18.2
2017-09-06T05:00:33.830Z,18.29
2017-09-06T05:01:34.122Z,18.2
2017-09-06T05:02:34.150Z,18.23
2017-09-06T05:03:34.078Z,18.25
2017-09-06T05:04:34.062Z,18.2
2017-09-06T05:05:34.050Z,18.21
2017-09-06T05:06:33.710Z,18.21
2017-09-06T05:07:33.994Z,18.19
2017-09-06T05:08:35.225Z,18.23
2017-09-06T05:09:33.963Z,18.17
2017-09-06T05:10:33.939Z,18.21
2017-09-06T05:11:33.917Z,18.23
2017-09-06T05:12:33.591Z,18.16
2017-09-06T05:13:33.875Z,18.25
2017-09-06T05:14:33.854Z,18.21
2017-09-06T05:15:33.837Z,18.19
2017-09-06T05:16:33.827Z,18.25
2017-09-06T05:17:33.792Z,18.21
2017-09-06T05:18:33.778Z,18.16
2017-09-06T05:19:33.750Z,18.17
2017-09-06T05:20:33.743Z,18.21
2017-09-06T05:21:33.717Z,18.16
2017-09-06T05:22:33.689Z,18.17
2017-09-06T05:23:33.674Z,18.13
2017-09-06T05:24:33.650Z,18.17
2017-09-06T05:25:33.636Z,18.17
2017-09-06T05:26:33.612Z,18.19
2017-09-06T05:27:33.592Z,18.17
2017-09-06T05:28:33.567Z,18.16
2017-09-06T05:29:33.556Z,18.16
2017-09-06T05:30:33.532Z,18.11
2017-09-06T05:31:33.509Z,18.13
2017-09-06T05:32:33.495Z,18.13
2017-09-06T05:33:33.508Z,18.11
2017-09-06T05:34:33.449Z,18.1
2017-09-06T05:35:33.434Z,18.11
2017-09-06T05:36:33.411Z,18.09
2017-09-06T05:37:33.444Z,18.16
2017-09-06T05:38:33.382Z,18.1
2017-09-06T05:39:33.349Z,18.13
2017-09-06T05:40:33.324Z,18.2
2017-09-06T05:41:33.313Z,18.19
2017-09-06T05:42:33.290Z,18.16
2017-09-06T05:43:33.266Z,18.28
2017-09-06T05:44:33.245Z,18.31
2017-09-06T05:45:33.231Z,18.26
2017-09-06T05:46:33.206Z,18.31
2017-09-06T05:47:33.185Z,18.34
2017-09-06T05:48:33.420Z,18.35
2017-09-06T05:49:33.148Z,18.35
2017-09-06T05:50:32.872Z,18.35
2017-09-06T05:51:33.105Z,18.44
2017-09-06T05:52:33.094Z,18.35
2017-09-06T05:53:33.070Z,18.42
2017-09-06T05:55:33.024Z,18.54
2017-09-06T05:56:33.009Z,18.49
2017-09-06T05:57:32.983Z,18.53
2017-09-06T05:58:32.964Z,18.5
2017-09-06T05:59:32.943Z,18.56
2017-09-06T06:00:32.925Z,18.47
2017-09-06T06:01:32.903Z,18.5
2017-09-06T06:02:32.887Z,18.51
2017-09-06T06:03:32.864Z,18.5
2017-09-06T06:04:32.845Z,18.39
2017-09-06T06:05:32.826Z,18.36
2017-09-06T06:06:32.804Z,18.47
2017-09-06T06:07:32.781Z,18.51
2017-09-06T06:08:32.764Z,18.56
2017-09-06T06:09:32.750Z,18.51
2017-09-06T06:10:32.730Z,18.57
2017-09-06T06:11:32.710Z,18.6
2017-09-06T06:12:32.772Z,18.64
2017-09-06T06:13:32.664Z,18.71
2017-09-06T06:14:32.641Z,18.78
2017-09-06T06:15:32.621Z,18.75
2017-09-06T06:16:32.657Z,18.86
2017-09-06T06:17:32.585Z,18.83
2017-09-06T06:18:32.564Z,18.97
2017-09-06T06:19:32.543Z,18.97
2017-09-06T06:20:32.522Z,19.13
2017-09-06T06:21:32.508Z,19.13
2017-09-06T06:22:32.183Z,19.15
2017-09-06T06:23:32.466Z,19.1
2017-09-06T06:24:32.445Z,19.17
2017-09-06T06:25:32.424Z,19.1
2017-09-06T06:26:32.102Z,19.09
2017-09-06T06:27:32.390Z,18.97
2017-09-06T06:28:32.364Z,19.05
2017-09-06T06:29:32.349Z,18.97
2017-09-06T06:30:32.331Z,18.87
2017-09-06T06:31:32.307Z,18.87
2017-09-06T06:32:31.986Z,18.87
2017-09-06T06:33:31.962Z,18.83
2017-09-06T06:34:32.257Z,18.78
2017-09-06T06:35:32.227Z,18.72
2017-09-06T06:36:32.219Z,18.76
2017-09-06T06:37:32.199Z,18.71
2017-09-06T06:38:32.170Z,18.71
2017-09-06T06:39:32.153Z,18.65
2017-09-06T06:40:32.128Z,18.6
2017-09-06T06:41:31.811Z,18.74
2017-09-06T06:42:32.093Z,18.68
2017-09-06T06:43:32.074Z,18.71
2017-09-06T06:44:32.078Z,18.74
2017-09-06T06:45:32.033Z,18.72
2017-09-06T06:46:32.014Z,18.74
2017-09-06T06:47:31.693Z,18.64
2017-09-06T06:48:31.974Z,18.62
2017-09-06T06:49:31.654Z,18.65
2017-09-06T06:50:31.621Z,18.62
2017-09-06T06:51:31.911Z,18.62
2017-09-06T06:52:31.899Z,18.68
2017-09-06T06:53:31.870Z,18.68
2017-09-06T06:54:31.546Z,18.68
2017-09-06T06:55:31.833Z,18.6
2017-09-06T06:56:31.864Z,18.64
2017-09-06T06:57:31.502Z,18.68
2017-09-06T06:58:31.467Z,18.59
2017-09-06T06:59:31.755Z,18.62
2017-09-06T07:00:31.838Z,18.59
2017-09-06T07:01:31.410Z,18.6
2017-09-06T07:02:31.689Z,18.62
2017-09-06T07:03:31.367Z,18.62
2017-09-06T07:04:31.701Z,18.66
2017-09-06T07:05:31.633Z,18.64
2017-09-06T07:06:31.614Z,18.66
2017-09-06T07:07:31.289Z,18.62
2017-09-06T07:08:31.565Z,18.59
2017-09-06T07:09:31.655Z,18.74
2017-09-06T07:10:31.536Z,18.74
2017-09-06T07:11:31.524Z,18.74
2017-09-06T07:12:31.190Z,18.71
2017-09-06T07:13:31.277Z,18.76
2017-09-06T07:14:30.854Z,18.76
2017-09-06T07:15:31.436Z,18.72
2017-09-06T07:16:31.103Z,18.72
2017-09-06T07:17:31.398Z,18.66
2017-09-06T07:18:31.373Z,18.64
2017-09-06T07:19:31.354Z,18.6
2017-09-06T07:20:31.538Z,18.65
2017-09-06T07:21:31.320Z,18.62
2017-09-06T07:22:31.038Z,18.66
2017-09-06T07:23:31.283Z,18.68
2017-09-06T07:24:30.646Z,18.78
2017-09-06T07:25:31.285Z,18.78
2017-09-06T07:26:31.034Z,18.75
2017-09-06T07:27:30.888Z,18.86
2017-09-06T07:28:31.179Z,18.86
2017-09-06T07:29:31.161Z,18.93
2017-09-06T07:30:31.245Z,18.96
2017-09-06T07:31:30.509Z,19.1
2017-09-06T07:32:30.787Z,19.21
2017-09-06T07:33:30.782Z,19.27
2017-09-06T07:34:30.869Z,19.28
2017-09-06T07:35:30.428Z,19.3
2017-09-06T07:36:31.022Z,19.31
2017-09-06T07:37:30.705Z,19.3
2017-09-06T07:38:30.981Z,19.55
2017-09-06T07:39:30.957Z,19.67
2017-09-06T07:40:30.739Z,19.83
2017-09-06T07:41:30.623Z,19.97
2017-09-06T07:42:30.909Z,19.95
2017-09-06T07:43:31.033Z,19.95
2017-09-06T07:44:30.552Z,19.89
2017-09-06T07:45:30.542Z,19.79
2017-09-06T07:46:30.821Z,19.85
2017-09-06T07:47:30.813Z,19.8
2017-09-06T07:48:30.835Z,19.71
2017-09-06T07:49:30.471Z,19.68
2017-09-06T07:50:30.438Z,19.61
2017-09-06T07:51:30.124Z,19.55
2017-09-06T07:52:31.012Z,19.43
2017-09-06T07:53:30.398Z,19.31
2017-09-06T07:54:30.069Z,19.21
2017-09-06T07:55:30.350Z,19.13
2017-09-06T07:56:30.502Z,19.06
2017-09-06T07:57:30.460Z,18.91
2017-09-06T07:58:30.447Z,18.76
2017-09-06T07:59:30.269Z,18.66
2017-09-06T08:00:30.248Z,18.68
2017-09-06T08:01:30.335Z,18.53
2017-09-06T08:02:29.905Z,18.51
2017-09-06T08:03:30.181Z,18.49
2017-09-06T08:04:30.375Z,18.51
2017-09-06T08:05:30.152Z,18.36
2017-09-06T08:06:30.581Z,18.46
2017-09-06T08:07:30.213Z,18.34
2017-09-06T08:08:29.786Z,18.31
2017-09-06T08:09:30.376Z,18.32
2017-09-06T08:10:30.093Z,18.25
2017-09-06T08:11:29.724Z,18.25
2017-09-06T08:12:30.116Z,18.26
2017-09-06T08:13:30.009Z,18.17
2017-09-06T08:14:30.078Z,18.13
2017-09-06T08:15:29.956Z,18.13
2017-09-06T08:16:29.934Z,18.07
2017-09-06T08:17:30.006Z,18.09
2017-09-06T08:18:29.602Z,18.13
2017-09-06T08:19:29.877Z,18.13
2017-09-06T08:20:29.996Z,18.13
2017-09-06T08:21:30.177Z,18.17
2017-09-06T08:22:29.850Z,18.14
2017-09-06T08:23:30.088Z,18.1
2017-09-06T08:24:30.071Z,18.09
2017-09-06T08:25:30.144Z,18.07
2017-09-06T08:26:30.074Z,18.09
2017-09-06T08:27:30.159Z,17.99
2017-09-06T08:28:29.674Z,18.04
2017-09-06T08:29:29.973Z,18.04
2017-09-06T08:30:29.946Z,18.09
2017-09-06T08:31:30.020Z,17.92
2017-09-06T08:32:30.012Z,18.02
2017-09-06T08:33:30.034Z,17.98
2017-09-06T08:34:30.011Z,18.01
2017-09-06T08:35:29.851Z,17.98
2017-09-06T08:36:29.825Z,17.89
2017-09-06T08:37:30.011Z,17.91
2017-09-06T08:38:29.786Z,17.79
2017-09-06T08:39:29.759Z,17.81
2017-09-06T08:40:29.744Z,17.8
2017-09-06T08:41:29.412Z,17.79
2017-09-06T08:42:29.703Z,17.74
2017-09-06T08:43:29.789Z,17.58
2017-09-06T08:44:29.366Z,17.58
2017-09-06T08:45:29.678Z,17.42
2017-09-06T08:46:29.616Z,17.45
2017-09-06T08:47:29.398Z,17.42
2017-09-06T08:48:29.676Z,17.27
2017-09-06T08:49:29.710Z,17.14
2017-09-06T08:50:29.293Z,17.1
2017-09-06T08:51:29.422Z,17.07
2017-09-06T08:52:29.188Z,16.98
2017-09-06T08:53:29.170Z,16.98
2017-09-06T08:54:29.458Z,16.95
2017-09-06T08:55:29.134Z,16.95
2017-09-06T08:56:29.112Z,17.03
2017-09-06T08:57:29.193Z,17.03
2017-09-06T08:58:28.773Z,16.98
2017-09-06T08:59:29.356Z,17.06
2017-09-06T09:00:29.481Z,17.1
2017-09-06T09:01:29.107Z,17.1
2017-09-06T09:02:29.290Z,17.09
2017-09-06T09:03:29.272Z,17.15
2017-09-06T09:04:29.394Z,17.07
2017-09-06T09:05:28.927Z,17.27
2017-09-06T09:06:28.910Z,17.14
2017-09-06T09:07:28.902Z,17.15
2017-09-06T09:08:29.169Z,17.17
2017-09-06T09:09:29.244Z,17.1
2017-09-06T09:10:29.130Z,17.24
2017-09-06T09:11:28.799Z,17.07
2017-09-06T09:12:28.793Z,17.1
2017-09-06T09:13:29.169Z,17.12
2017-09-06T09:14:29.060Z,17.05
2017-09-06T09:15:29.031Z,16.96
2017-09-06T09:16:29.003Z,16.96
2017-09-06T09:17:28.676Z,17.03
2017-09-06T09:18:28.397Z,16.88
2017-09-06T09:19:28.790Z,16.9
2017-09-06T09:20:28.629Z,16.87
2017-09-06T09:21:28.899Z,16.9
2017-09-06T09:22:28.489Z,16.8
2017-09-06T09:23:28.863Z,16.77
2017-09-06T09:24:28.532Z,16.67
2017-09-06T09:25:28.670Z,16.66
2017-09-06T09:26:28.592Z,16.77
2017-09-06T09:27:28.217Z,16.69
2017-09-06T09:28:28.156Z,16.7
2017-09-06T09:29:28.434Z,16.78
2017-09-06T09:30:28.412Z,16.77
2017-09-06T09:31:28.496Z,16.75
2017-09-06T09:32:28.676Z,16.88
2017-09-06T09:33:28.353Z,16.88
2017-09-06T09:34:28.637Z,16.88
2017-09-06T09:35:28.528Z,16.85
2017-09-06T09:36:28.607Z,16.72
2017-09-06T09:37:28.372Z,16.78
2017-09-06T09:38:28.091Z,16.77
2017-09-06T09:39:28.377Z,16.8
2017-09-06T09:40:28.240Z,16.88
2017-09-06T09:41:28.437Z,16.87
2017-09-06T09:42:28.361Z,16.85
2017-09-06T09:43:27.891Z,16.8
2017-09-06T09:44:28.127Z,16.87
2017-09-06T09:45:28.408Z,16.92
2017-09-06T09:46:28.485Z,16.95
2017-09-06T09:47:28.363Z,16.99
2017-09-06T09:48:28.347Z,17.02
2017-09-06T09:49:28.471Z,17.12
2017-09-06T09:50:28.308Z,17.14
2017-09-06T09:51:28.382Z,17.28
2017-09-06T09:52:27.956Z,17.33
2017-09-06T09:53:28.245Z,17.47
2017-09-06T09:54:28.418Z,17.55
2017-09-06T09:55:28.216Z,17.73
2017-09-06T09:56:28.283Z,17.99
2017-09-06T09:57:28.261Z,17.98
2017-09-06T09:58:28.139Z,18.17
2017-09-06T09:59:28.381Z,18.31
2017-09-06T10:00:27.896Z,18.16
2017-09-06T10:01:28.081Z,18.1
2017-09-06T10:02:28.211Z,18.04
2017-09-06T10:03:28.044Z,17.96
2017-09-06T10:04:28.023Z,17.98
2017-09-06T10:05:27.696Z,17.94
2017-09-06T10:06:27.985Z,17.89
2017-09-06T10:07:27.967Z,17.86
2017-09-06T10:08:27.636Z,17.79
2017-09-06T10:09:27.770Z,17.96
2017-09-06T10:10:28.059Z,18.01
2017-09-06T10:11:27.899Z,17.98
2017-09-06T10:12:27.869Z,17.99
2017-09-06T10:13:28.006Z,18.19
2017-09-06T10:14:27.824Z,18.29
2017-09-06T10:15:27.808Z,18.41
2017-09-06T10:16:27.486Z,18.56
2017-09-06T10:17:27.773Z,18.57
2017-09-06T10:18:27.751Z,18.56
2017-09-06T10:19:27.726Z,18.57
2017-09-06T10:20:27.910Z,18.54
2017-09-06T10:21:27.480Z,18.57
2017-09-06T10:22:27.675Z,18.65
2017-09-06T10:23:27.852Z,18.62
2017-09-06T10:24:27.634Z,18.78
2017-09-06T10:25:27.619Z,18.78
2017-09-06T10:26:27.604Z,18.82
2017-09-06T10:27:27.674Z,18.9
2017-09-06T10:28:27.706Z,18.86
2017-09-06T10:29:27.536Z,18.91
2017-09-06T10:30:27.575Z,18.96
2017-09-06T10:31:27.650Z,18.99
2017-09-06T10:32:27.726Z,18.96
2017-09-06T10:33:27.461Z,18.96
2017-09-06T10:34:27.538Z,18.99
2017-09-06T10:35:27.423Z,18.94
2017-09-06T10:36:27.394Z,18.99
2017-09-06T10:37:27.379Z,18.93
2017-09-06T10:38:27.360Z,19.05
2017-09-06T10:39:27.341Z,19.06
2017-09-06T10:40:27.336Z,19.15
2017-09-06T10:41:27.456Z,19.15
2017-09-06T10:42:27.281Z,19.24
2017-09-06T10:43:27.376Z,19.2
2017-09-06T10:44:27.246Z,19.16
2017-09-06T10:45:27.229Z,19.24
2017-09-06T10:46:27.356Z,19.17
2017-09-06T10:47:27.197Z,19.21
2017-09-06T10:48:27.169Z,19.28
2017-09-06T10:49:27.245Z,19.27
2017-09-06T10:50:27.124Z,19.28
2017-09-06T10:51:27.321Z,19.31
2017-09-06T10:52:27.089Z,19.39
2017-09-06T10:53:26.760Z,19.43
2017-09-06T10:54:27.046Z,19.55
2017-09-06T10:55:27.134Z,19.61
2017-09-06T10:56:27.164Z,19.64
2017-09-06T10:57:27.005Z,19.62
2017-09-06T10:58:26.977Z,19.71
2017-09-06T10:59:26.952Z,19.65
2017-09-06T11:00:26.941Z,19.65
2017-09-06T11:01:26.923Z,19.64
2017-09-06T11:02:26.894Z,19.8
2017-09-06T11:03:26.876Z,19.8
2017-09-06T11:04:26.854Z,19.97
2017-09-06T11:05:26.852Z,19.92
2017-09-06T11:06:26.824Z,20.19
2017-09-06T11:07:26.813Z,20.13
2017-09-06T11:08:26.781Z,20.08
2017-09-06T11:09:26.766Z,20.08
2017-09-06T11:10:26.735Z,20.2
2017-09-06T11:11:26.719Z,20.08
2017-09-06T11:12:26.705Z,20.2
2017-09-06T11:13:26.577Z,20.16
2017-09-06T11:14:26.920Z,20.17
2017-09-06T11:15:26.796Z,20.2
2017-09-06T11:16:26.728Z,20.27
2017-09-06T11:17:26.604Z,20.51
2017-09-06T11:18:26.689Z,20.53
2017-09-06T11:19:26.672Z,20.58
2017-09-06T11:20:26.703Z,20.72
2017-09-06T11:21:26.225Z,20.76
2017-09-06T11:22:26.524Z,20.75
2017-09-06T11:23:26.493Z,20.76
2017-09-06T11:24:26.530Z,20.64
2017-09-06T11:25:26.468Z,20.6
2017-09-06T11:26:26.438Z,20.64
2017-09-06T11:27:26.517Z,20.57
2017-09-06T11:28:26.404Z,20.51
2017-09-06T11:29:26.679Z,20.42
2017-09-06T11:30:26.515Z,20.35
2017-09-06T11:31:26.189Z,20.35
2017-09-06T11:32:26.586Z,20.25
2017-09-06T11:33:26.313Z,20.26
2017-09-06T11:34:26.339Z,20.22
2017-09-06T11:35:26.276Z,20.2
2017-09-06T11:36:26.249Z,20.23
2017-09-06T11:37:26.434Z,20.27
2017-09-06T11:38:26.213Z,20.5
2017-09-06T11:39:26.201Z,20.51
2017-09-06T11:40:26.189Z,20.61
2017-09-06T11:41:26.167Z,20.57
2017-09-06T11:42:26.186Z,20.58
2017-09-06T11:43:26.228Z,20.5
2017-09-06T11:44:26.106Z,20.46
2017-09-06T11:45:25.774Z,20.42
2017-09-06T11:46:26.169Z,20.46
2017-09-06T11:47:25.742Z,20.5
2017-09-06T11:48:26.127Z,20.42
2017-09-06T11:49:25.708Z,20.42
2017-09-06T11:50:25.992Z,20.37
2017-09-06T11:51:25.971Z,20.4
2017-09-06T11:52:25.650Z,20.48
2017-09-06T11:53:25.938Z,20.48
2017-09-06T11:54:26.059Z,20.57
2017-09-06T11:55:25.901Z,20.73
2017-09-06T11:56:26.077Z,20.68
2017-09-06T11:57:25.556Z,20.63
2017-09-06T11:58:25.839Z,20.63
2017-09-06T11:59:25.512Z,20.5
2017-09-06T12:00:25.592Z,20.4
2017-09-06T12:01:25.776Z,20.19
2017-09-06T12:02:25.776Z,20.25
2017-09-06T12:03:25.745Z,20.17
2017-09-06T12:04:25.833Z,20.2
2017-09-06T12:05:25.708Z,20.26
2017-09-06T12:06:25.746Z,20.25
2017-09-06T12:07:25.832Z,20.34
2017-09-06T12:08:25.805Z,20.33
2017-09-06T12:09:25.842Z,20.48
2017-09-06T12:10:25.671Z,20.4
2017-09-06T12:11:25.596Z,20.51
2017-09-06T12:12:25.577Z,20.46
2017-09-06T12:13:25.569Z,20.53
2017-09-06T12:14:25.552Z,20.48
2017-09-06T12:15:25.514Z,20.54
2017-09-06T12:16:25.655Z,20.51
2017-09-06T12:17:25.585Z,20.46
2017-09-06T12:18:25.463Z,20.5
2017-09-06T12:19:25.453Z,20.5
2017-09-06T12:20:25.620Z,20.64
2017-09-06T12:21:25.615Z,20.68
2017-09-06T12:22:25.694Z,20.75
2017-09-06T12:23:25.566Z,20.61
2017-09-06T12:24:25.399Z,20.64
2017-09-06T12:25:25.324Z,20.64
2017-09-06T12:26:25.306Z,20.61
2017-09-06T12:27:25.291Z,20.53
2017-09-06T12:28:25.377Z,20.33
2017-09-06T12:29:25.255Z,20.16
2017-09-06T12:30:24.928Z,20.1
2017-09-06T12:31:25.212Z,19.95
2017-09-06T12:32:25.191Z,19.89
2017-09-06T12:33:25.287Z,19.85
2017-09-06T12:34:25.371Z,19.68
2017-09-06T12:35:25.151Z,19.67
2017-09-06T12:36:24.914Z,19.67
2017-09-06T12:37:25.097Z,19.58
2017-09-06T12:38:24.924Z,19.55
2017-09-06T12:39:24.776Z,19.42
2017-09-06T12:40:25.047Z,19.4
2017-09-06T12:41:25.036Z,19.27
2017-09-06T12:42:25.016Z,19.27
2017-09-06T12:43:24.836Z,19.21
2017-09-06T12:44:24.872Z,19.24
2017-09-06T12:45:25.154Z,19.15
2017-09-06T12:46:25.082Z,19.1
2017-09-06T12:47:24.712Z,19.12
2017-09-06T12:48:24.582Z,19.12
2017-09-06T12:49:24.574Z,19.12
2017-09-06T12:50:24.705Z,19.15
2017-09-06T12:51:24.600Z,19.25
2017-09-06T12:52:24.673Z,19.27
2017-09-06T12:53:24.897Z,19.3
2017-09-06T12:54:24.183Z,19.32
2017-09-06T12:55:24.143Z,19.27
2017-09-06T12:56:24.742Z,19.45